National Weather Service Raw Text Product

Displaying AFOS PIL: TAFFOD Received: 2018-08-11 05:20 UTC


352 
FTUS43 KDMX 110520
TAFFOD
TAF
KFOD 110520Z 1106/1206 VRB03KT P6SM FEW250
     FM111100 VRB02KT 3SM BR FEW200
     FM111400 14004KT P6SM SCT250=